Station: Omeo  

  Atmospheric Gas Attenuation - ITU Rec 676-11   ----------------- dB/100km -----------------
Date Time Temp RH % AH g/m3 Dew Point Wind Direction Speed kph Gust kph Barometer mB Rainfall Since 9am 24GHz 47GHz 76GHz 122GHz 134GHz 241GHz
08/05 12:30 15 56 7.18 6.3 6 9 1019.2 0 16.5 23.6 34.0 88.9 79.3 271.8
08/05 12:20 14.4 53 6.55 5 7 9 1019.5 0 15.2 22.8 31.9 83.3 72.2 246.6
08/05 12:10 14 56 6.75 5.4 7 9 1019.5 0 15.6 23.2 32.8 85.7 75.0 256.5
08/05 12:00 13.9 58 6.95 5.8 9 15 1019.4 0 16.1 23.5 33.6 87.8 77.6 265.5
08/05 11:50 12.8 61 6.83 5.5 13 17 1019.6 0 15.9 23.6 33.6 87.8 77.2 263.9
08/05 11:40 12.9 63 7.1 6 15 19 1019.6 0 16.4 24.0 34.6 90.4 80.5 275.5
08/05 11:30 12.8 66 7.39 6.6 15 20 1019.6 0 17.0 24.5 35.8 93.6 84.3 288.9
08/05 11:20 12.9 64 7.21 6.3 19 20 1019.8 0 16.7 24.2 35.0 91.6 81.9 280.5
08/05 11:10 11.8 66 6.95 5.7 19 22 1019.7 0 16.2 24.1 34.5 90.1 79.7 272.6
08/05 11:00 12.4 63 6.88 5.6 17 22 1019.6 0 16.0 23.8 34.0 88.7 78.2 267.5
08/05 10:50 12.1 65 6.97 5.7 15 17 1019.7 0 16.2 24.0 34.4 90.0 79.7 272.5
08/05 10:40 12.4 65 7.1 6 15 19 1019.6 0 16.4 24.1 34.8 91.0 81.0 277.3
08/05 10:30 11.9 65 6.88 5.5 15 20 1019.2 0 16.0 23.9 34.2 89.3 78.7 269.1
08/05 10:20 11.8 66 6.95 5.7 17 20 1019.2 0 16.2 24.0 34.5 90.1 79.7 272.5
08/05 10:10 11.7 67 7.01 5.8 15 20 1019.2 0 16.3 24.2 34.7 90.8 80.5 275.6
08/05 10:00 11.3 68 6.94 5.6 6 11 1018.8 0 16.2 24.1 34.6 90.5 80.0 273.7
08/05 09:50 10 72 6.77 5.2 15 17 1019 0 15.8 24.2 34.5 90.2 79.2 270.5
08/05 09:40 9.3 74 6.65 4.9 13 17 1019 0 15.6 24.2 34.4 89.8 78.3 267.4
08/05 09:30 9 76 6.7 5 13 19 1019.1 0 15.7 24.4 34.7 90.7 79.3 270.7
08/05 09:20 8.9 78 6.84 5.3 13 15 1019.4 0 16.0 24.7 35.3 92.3 81.2 277.6
08/05 09:10 8.1 78 6.49 4.5 9 13 1019.5 0 15.3 24.3 34.3 89.5 77.4 264.2
08/05 09:00 7.6 79 6.37 4.2 17 24 1019.3 0 15.1 24.3 34.0 88.7 76.3 260.2
08/05 08:50 7.2 80 6.28 4 15 19 1019.5 0 14.9 24.2 33.8 88.2 75.5 257.4
08/05 08:40 6.9 81 6.24 3.9 19 22 1019.4 0 14.8 24.2 33.8 88.1 75.3 256.5
08/05 08:30 6.7 83 6.31 4 20 28 1019.1 0 15.0 24.4 34.1 89.1 76.4 260.3
08/05 08:20 6.4 85 6.34 4.1 19 20 1019.3 0 15.1 24.5 34.4 89.8 77.1 262.8
08/05 08:10 5.7 86 6.12 3.5 20 24 1019.2 0 14.6 24.4 33.8 88.2 74.8 254.7
08/05 08:00 5.6 87 6.15 3.6 20 28 1018.8 0 14.7 24.4 33.9 88.6 75.3 256.4
08/05 07:50 5.4 88 6.14 3.6 19 22 1018.9 0 14.7 24.5 34.0 88.7 75.4 256.6
08/05 07:40 5.3 88 6.1 3.5 17 22 1018.9 0 14.6 24.4 33.8 88.4 74.9 255.0
08/05 07:30 5.4 88 6.14 3.6 20 28 1018.6 0 14.7 24.4 34.0 88.7 75.3 256.5
08/05 07:20 5.5 87 6.11 3.5 20 26 1018.7 0 14.6 24.4 33.8 88.2 74.8 254.8
08/05 07:10 5.3 88 6.1 3.5 24 28 1018.5 0 14.6 24.4 33.8 88.3 74.9 254.9
08/05 07:00 5.1 88 6.02 3.3 22 32 1018.3 0 14.4 24.3 33.6 87.7 74.0 251.7
08/05 06:50 5.1 88 6.02 3.3 20 24 1018.5 0 14.4 24.3 33.6 87.7 74.0 251.8
08/05 06:40 4.9 88 5.94 3.1 20 28 1018.5 0 14.3 24.3 33.3 87.0 73.1 248.6
08/05 06:30 5 88 5.98 3.2 22 30 1018.2 0 14.3 24.3 33.4 87.3 73.5 250.1
08/05 06:20 4.9 88 5.94 3.1 22 26 1018.4 0 14.3 24.2 33.3 87.0 73.1 248.6
08/05 06:10 5 88 5.98 3.2 20 28 1018.4 0 14.3 24.3 33.5 87.4 73.6 250.2
08/05 06:00 4.9 88 5.94 3.1 22 30 1018.2 0 14.3 24.2 33.3 87.0 73.1 248.6
08/05 05:50 4.9 88 5.94 3.1 19 24 1018.4 0 14.3 24.2 33.3 87.0 73.1 248.6
08/05 05:40 4.8 89 5.97 3.1 17 20 1018.4 0 14.3 24.3 33.5 87.5 73.6 250.3
08/05 05:30 4.9 89 6.01 3.2 20 28 1018.3 0 14.4 24.4 33.6 87.8 74.0 251.9
08/05 05:20 4.9 89 6.01 3.2 19 22 1018.4 0 14.4 24.4 33.6 87.8 74.1 251.9
08/05 05:10 5 88 5.98 3.2 20 24 1018.2 0 14.3 24.3 33.4 87.3 73.5 250.1
08/05 05:00 4.7 89 5.93 3 20 28 1017.7 0 14.2 24.3 33.3 87.1 73.1 248.6
08/05 04:50 4.5 89 5.85 2.8 20 24 1018 0 14.1 24.2 33.1 86.4 72.2 245.5
08/05 04:40 4.7 88 5.87 2.9 22 24 1018.1 0 14.1 24.2 33.1 86.5 72.3 245.9
08/05 04:30 4.5 88 5.79 2.7 17 24 1017.9 0 14.0 24.1 32.9 85.8 71.4 242.7
08/05 04:20 4.4 88 5.75 2.6 19 24 1018 0 13.9 24.1 32.8 85.5 71.0 241.1
08/05 04:10 4.5 88 5.79 2.7 20 22 1017.8 0 14.0 24.1 32.9 85.8 71.4 242.6
08/05 04:00 4.5 88 5.79 2.7 19 26 1017.5 0 13.9 24.1 32.9 85.7 71.4 242.6
08/05 03:50 4.6 87 5.76 2.6 17 22 1018 0 13.9 24.0 32.7 85.4 70.9 240.9
08/05 03:40 4.7 86 5.73 2.6 15 19 1018.2 0 13.8 23.9 32.6 84.9 70.5 239.3
08/05 03:30 4.8 85 5.7 2.5 19 24 1018.1 0 13.7 23.9 32.4 84.5 70.0 237.5
08/05 03:20 4.8 86 5.77 2.7 19 24 1018.2 0 13.9 24.0 32.7 85.3 70.9 240.8
08/05 03:10 4.6 86 5.7 2.5 15 17 1018.3 0 13.8 23.9 32.5 84.7 70.2 238.2
08/05 03:00 4.7 86 5.73 2.6 20 28 1018.2 0 13.8 23.9 32.6 84.9 70.5 239.3
08/05 02:50 4.7 86 5.73 2.6 20 24 1018.4 0 13.8 24.0 32.6 85.0 70.5 239.3
08/05 02:40 4.6 86 5.7 2.5 19 24 1018.5 0 13.8 23.9 32.5 84.8 70.2 238.2
08/05 02:30 4.5 86 5.66 2.4 17 22 1018.3 0 13.7 23.9 32.4 84.4 69.7 236.6
08/05 02:20 4.3 86 5.58 2.2 17 22 1018.5 0 13.5 23.8 32.1 83.8 68.8 233.5
08/05 02:10 4.3 86 5.58 2.2 15 19 1018.6 0 13.5 23.8 32.1 83.8 68.8 233.5
08/05 02:00 4.2 85 5.48 1.9 17 24 1018.4 0 13.3 23.7 31.8 82.8 67.6 229.1
08/05 01:50 4.2 85 5.48 1.9 11 15 1018.7 0 13.3 23.7 31.8 82.8 67.6 229.1
08/05 01:40 4.2 85 5.48 1.9 19 20 1018.6 0 13.3 23.7 31.8 82.8 67.6 229.1
08/05 01:30 4.1 85 5.44 1.8 20 32 1018.4 0 13.2 23.6 31.6 82.5 67.1 227.5
08/05 01:20 4.1 84 5.38 1.6 20 24 1018.7 0 13.1 23.6 31.4 81.8 66.3 224.7
08/05 01:10 4.2 84 5.42 1.7 20 28 1018.9 0 13.2 23.6 31.5 82.2 66.8 226.4
08/05 01:00 4.3 83 5.39 1.7 19 26 1018.7 0 13.1 23.5 31.4 81.7 66.3 224.6
08/05 00:50 4.5 82 5.39 1.7 19 26 1019.2 0 13.1 23.5 31.3 81.6 66.2 224.2
08/05 00:40 4.5 82 5.39 1.7 19 22 1019.3 0 13.1 23.5 31.3 81.6 66.2 224.2
08/05 00:30 4.4 81 5.29 1.4 17 22 1019.3 0 12.9 23.4 30.9 80.6 64.9 219.8
08/05 00:20 4.5 81 5.33 1.5 20 24 1019.5 0 13.0 23.4 31.1 81.0 65.4 221.4
08/05 00:10 4.5 81 5.33 1.5 17 19 1019.6 0 13.0 23.4 31.1 81.0 65.4 221.5
08/05 00:00 4.5 81 5.33 1.5 19 24 1019.4 0 13.0 23.4 31.1 81.0 65.4 221.4
07/05 23:50 4.5 81 5.33 1.5 15 17 1019.7 0 13.0 23.4 31.1 81.0 65.4 221.5
07/05 23:40 4.4 81 5.29 1.4 17 19 1019.6 0 12.9 23.4 31.0 80.6 65.0 219.9
07/05 23:30 4.4 81 5.29 1.4 19 26 1019.4 0 12.9 23.4 31.0 80.6 64.9 219.8
07/05 23:20 4.4 81 5.29 1.4 17 20 1019.8 0 12.9 23.4 31.0 80.7 65.0 219.9
07/05 23:10 4.2 82 5.29 1.4 17 20 1019.9 0 12.9 23.4 31.0 80.9 65.1 220.5
07/05 23:00 4.1 83 5.32 1.5 15 20 1019.7 0 13.0 23.5 31.2 81.3 65.6 222.1
07/05 22:50 4.1 82 5.25 1.3 19 20 1019.9 0 12.8 23.4 30.9 80.6 64.7 218.9
07/05 22:40 4 82 5.22 1.2 19 22 1019.9 0 12.7 23.4 30.8 80.3 64.4 217.8
07/05 22:30 4.1 81 5.19 1.1 19 24 1019.7 0 12.7 23.3 30.7 79.9 63.9 216.1
07/05 22:20 4.1 81 5.19 1.1 19 20 1019.9 0 12.7 23.3 30.7 79.9 63.9 216.1
07/05 22:10 4.2 80 5.16 1.1 15 17 1020.2 0 12.6 23.2 30.5 79.5 63.4 214.5
07/05 22:00 4.1 80 5.12 1 15 20 1019.9 0 12.5 23.2 30.4 79.2 63.0 212.9
07/05 21:50 4.3 78 5.06 0.8 17 19 1020.2 0 12.4 23.0 30.1 78.4 62.0 209.6
07/05 21:40 4.4 78 5.1 0.9 17 20 1020.5 0 12.5 23.1 30.2 78.7 62.5 211.3
07/05 21:30 4.4 77 5.03 0.7 13 19 1020.4 0 12.3 23.0 30.0 78.0 61.6 208.0
07/05 21:20 4.5 76 5 0.6 15 17 1020.3 0 12.3 22.9 29.8 77.5 61.1 206.4
07/05 21:10 4.5 76 5 0.6 11 15 1020.3 0 12.3 22.9 29.8 77.5 61.1 206.4
07/05 21:00 4.6 77 5.1 0.9 13 19 1020.3 0 12.5 23.0 30.2 78.5 62.3 210.7
07/05 20:50 4.7 76 5.07 0.8 13 13 1020.6 0 12.4 23.0 30.0 78.1 61.9 209.1
07/05 20:40 4.8 75 5.03 0.8 13 17 1020.8 0 12.3 22.9 29.8 77.6 61.3 207.0
07/05 20:30 4.6 76 5.03 0.7 11 17 1020.5 0 12.3 22.9 29.9 77.8 61.4 207.5
07/05 20:20 4.5 78 5.13 1 11 15 1020.6 0 12.5 23.1 30.3 78.9 62.8 212.4
07/05 20:10 4.6 79 5.23 1.3 0 0 1020.6 0 12.7 23.3 30.7 79.9 64.1 216.7
07/05 20:00 4.6 78 5.17 1.1 0 0 1020.4 0 12.6 23.2 30.4 79.2 63.3 213.9

Last Refresh: 08-May-2026 12:07:30

Bureau of Meteorology